Time;durP1;ratioP1;P1;durP2;ratioP2;P2;SDS_P1;SDS_P2;PMS_P1;PMS_P2;Temp;Humidity;BMP_temperature;BMP_pressure;BME280_temperature;BME280_humidity;BME280_pressure;Samples;Min_cycle;Max_cycle;Signal;HPM_P1;HPM_P2
2022/12/28 00:01:46;;;;;;;9.57;4.23;;;4.10;99.90;;;;;;5013303;28;20188;-84
2022/12/28 00:04:14;;;;;;;10.63;4.70;;;4.10;99.90;;;;;;4996157;28;20201;-86
2022/12/28 00:06:41;;;;;;;12.87;4.60;;;4.00;99.90;;;;;;5013355;28;20254;-85
2022/12/28 00:09:11;;;;;;;10.67;4.57;;;4.10;99.90;;;;;;4996735;28;20290;-84
2022/12/28 00:11:39;;;;;;;11.93;4.70;;;4.10;99.90;;;;;;4996630;28;20199;-85
2022/12/28 00:14:06;;;;;;;12.20;4.30;;;4.20;99.90;;;;;;5013299;28;20637;-85
2022/12/28 00:16:38;;;;;;;10.67;4.17;;;4.10;99.90;;;;;;4995598;28;20302;-87
2022/12/28 00:19:15;;;;;;;10.70;4.70;;;4.10;99.90;;;;;;5013256;28;20196;-83
2022/12/28 00:21:46;;;;;;;10.47;4.27;;;4.10;99.90;;;;;;4996870;28;20191;-84
2022/12/28 00:24:26;;;;;;;12.53;4.60;;;4.10;99.90;;;;;;4995797;28;20211;-85
2022/12/28 00:26:57;;;;;;;9.17;4.27;;;4.10;99.90;;;;;;5014719;28;20304;-86
2022/12/28 00:29:24;;;;;;;13.77;4.60;;;4.00;99.90;;;;;;4996265;28;20255;-84
2022/12/28 00:31:50;;;;;;;10.47;4.67;;;4.00;99.90;;;;;;4995342;28;20267;-83
2022/12/28 00:34:18;;;;;;;12.50;4.83;;;4.00;99.90;;;;;;4997788;28;20212;-85
2022/12/28 00:36:48;;;;;;;13.83;4.80;;;3.90;99.90;;;;;;4999244;28;20587;-84
2022/12/28 00:39:39;;;;;;;17.70;4.60;;;4.00;99.90;;;;;;4999512;28;20658;-84
2022/12/28 00:42:07;;;;;;;8.97;4.40;;;4.00;99.90;;;;;;4999392;28;20232;-84
2022/12/28 00:44:35;;;;;;;10.93;4.60;;;3.90;99.90;;;;;;5017090;28;20339;-84
2022/12/28 00:47:02;;;;;;;9.57;4.50;;;3.90;99.90;;;;;;5017009;28;20318;-85
2022/12/28 00:49:30;;;;;;;11.97;4.53;;;3.90;99.90;;;;;;5016893;28;20255;-86
2022/12/28 00:52:08;;;;;;;10.67;4.50;;;3.90;99.90;;;;;;4999937;28;20206;-85
2022/12/28 00:54:39;;;;;;;8.03;4.47;;;3.90;99.90;;;;;;5017434;28;20222;-89
2022/12/28 00:57:15;;;;;;;12.97;4.50;;;3.90;99.90;;;;;;5000830;28;20206;-88
2022/12/28 00:59:46;;;;;;;9.23;4.80;;;3.80;99.90;;;;;;5016010;28;20668;-89
2022/12/28 01:02:21;;;;;;;11.50;4.40;;;3.80;99.90;;;;;;4999373;28;20327;-85
2022/12/28 01:04:48;;;;;;;11.83;4.57;;;3.80;99.90;;;;;;4998782;28;20196;-85
2022/12/28 01:07:15;;;;;;;12.47;4.60;;;3.70;99.90;;;;;;5016856;28;20363;-84
2022/12/28 01:09:42;;;;;;;13.10;5.17;;;3.70;99.90;;;;;;4999452;28;20680;-87
2022/12/28 01:12:10;;;;;;;10.47;4.50;;;3.70;99.90;;;;;;5015238;28;20212;-86
2022/12/28 01:14:38;;;;;;;9.60;4.60;;;3.70;99.90;;;;;;4999749;28;20655;-86
2022/12/28 01:17:05;;;;;;;11.83;4.73;;;3.60;99.90;;;;;;4999101;28;20298;-86
2022/12/28 01:19:33;;;;;;;11.77;4.90;;;3.70;99.90;;;;;;5016289;28;20180;-86
2022/12/28 01:22:00;;;;;;;12.80;4.70;;;3.80;99.90;;;;;;4998551;28;20299;-86
2022/12/28 01:24:27;;;;;;;14.30;5.37;;;3.70;99.90;;;;;;4998614;28;20226;-86
2022/12/28 01:26:59;;;;;;;8.73;4.67;;;3.70;99.90;;;;;;5016006;28;20199;-86
2022/12/28 01:29:27;;;;;;;11.73;5.27;;;3.70;99.90;;;;;;5017270;28;20235;-83
2022/12/28 01:31:54;;;;;;;12.07;5.07;;;3.70;99.90;;;;;;4998691;28;20326;-84
2022/12/28 01:34:21;;;;;;;15.00;5.43;;;3.60;99.90;;;;;;4998084;28;20528;-83
2022/12/28 01:36:48;;;;;;;12.33;5.00;;;3.60;99.90;;;;;;4998148;28;20204;-83
2022/12/28 01:39:15;;;;;;;14.07;6.00;;;3.70;99.90;;;;;;5015979;28;20588;-82
2022/12/28 01:41:43;;;;;;;11.50;5.20;;;3.70;99.90;;;;;;4997896;28;20315;-82
2022/12/28 01:44:10;;;;;;;12.40;5.73;;;3.60;99.90;;;;;;4997951;28;20204;-83
2022/12/28 01:46:49;;;;;;;12.57;5.40;;;3.60;99.90;;;;;;5015450;28;20220;-83
2022/12/28 01:49:28;;;;;;;13.63;5.80;;;3.60;99.90;;;;;;5015834;28;20200;-83
2022/12/28 01:52:14;;;;;;;14.93;5.37;;;3.60;99.90;;;;;;5015592;28;20189;-83
2022/12/28 01:54:52;;;;;;;11.93;5.23;;;3.60;99.90;;;;;;5014136;28;20712;-84
2022/12/28 01:57:28;;;;;;;11.00;5.77;;;3.60;99.90;;;;;;4998206;28;20645;-83
2022/12/28 02:00:08;;;;;;;11.97;5.70;;;3.60;99.90;;;;;;5015545;28;20219;-83
2022/12/28 02:02:35;;;;;;;11.83;5.50;;;3.60;99.90;;;;;;4997765;28;20290;-82
2022/12/28 02:05:03;;;;;;;10.80;5.33;;;3.60;99.90;;;;;;4997660;28;20207;-83
2022/12/28 02:08:02;;;;;;;12.43;5.30;;;3.50;99.90;;;;;;4997719;28;20196;-82
2022/12/28 02:10:34;;;;;;;13.53;5.77;;;3.50;99.90;;;;;;5014977;28;20200;-83
2022/12/28 02:13:13;;;;;;;12.17;5.40;;;3.40;99.90;;;;;;4999778;28;20199;-83
2022/12/28 02:15:41;;;;;;;13.77;5.73;;;3.50;99.90;;;;;;5014914;28;20270;-82
2022/12/28 02:18:10;;;;;;;15.47;5.67;;;3.50;99.90;;;;;;5015319;28;20274;-87
2022/12/28 02:21:02;;;;;;;12.87;5.90;;;3.40;99.90;;;;;;5015464;28;20198;-88
2022/12/28 02:24:10;;;;;;;15.13;6.00;;;3.40;99.90;;;;;;4997319;28;20692;-89
2022/12/28 02:26:53;;;;;;;13.63;5.50;;;3.40;99.90;;;;;;5014697;28;20177;-85
2022/12/28 02:29:36;;;;;;;13.97;5.37;;;3.30;99.90;;;;;;4996908;28;20255;-87
2022/12/28 02:32:41;;;;;;;11.80;5.73;;;3.30;99.90;;;;;;4997421;28;20214;-88
2022/12/28 02:35:42;;;;;;;12.63;5.43;;;3.20;99.90;;;;;;4996807;28;20566;-85
2022/12/28 02:38:35;;;;;;;12.63;5.57;;;3.30;99.90;;;;;;5014480;28;20195;-87
2022/12/28 02:41:19;;;;;;;12.97;5.77;;;3.30;99.90;;;;;;4997895;28;20556;-88
2022/12/28 02:43:53;;;;;;;11.87;5.40;;;3.10;99.90;;;;;;5015740;28;20178;-87
2022/12/28 02:52:22;;;;;;;13.40;5.77;;;3.00;99.90;;;;;;4996833;28;20343;-83
2022/12/28 02:56:15;;;;;;;13.40;5.47;;;3.00;99.90;;;;;;4996721;28;20278;-84
2022/12/28 02:58:56;;;;;;;13.87;5.87;;;2.80;99.90;;;;;;4936642;29;20609;-86
2022/12/28 03:01:41;;;;;;;11.63;6.00;;;2.80;99.90;;;;;;4954317;29;20178;-85
2022/12/28 03:04:26;;;;;;;11.70;5.83;;;2.70;99.90;;;;;;4954367;29;20272;-86
2022/12/28 03:10:04;;;;;;;15.27;6.57;;;2.60;99.90;;;;;;4954879;29;20582;-87
2022/12/28 03:12:44;;;;;;;13.37;6.33;;;2.50;99.90;;;;;;4953804;29;20305;-85
2022/12/28 03:15:33;;;;;;;12.57;6.17;;;2.60;99.90;;;;;;4938071;29;20317;-85
2022/12/28 03:32:33;;;;;;;13.03;6.93;;;2.20;99.90;;;;;;4953777;29;20216;-85
2022/12/28 03:35:00;;;;;;;17.13;7.13;;;2.10;99.90;;;;;;4976369;28;20235;-86
2022/12/28 03:37:42;;;;;;;15.97;7.13;;;2.00;99.90;;;;;;4996977;28;20207;-88
2022/12/28 03:40:51;;;;;;;14.77;6.90;;;2.00;99.90;;;;;;4996531;28;20227;-85
2022/12/28 03:43:40;;;;;;;14.93;6.90;;;1.90;99.90;;;;;;4995968;28;20242;-85
2022/12/28 03:46:21;;;;;;;15.13;7.07;;;1.80;99.90;;;;;;4997277;28;20553;-85
2022/12/28 03:48:58;;;;;;;14.70;7.10;;;1.80;99.90;;;;;;5014915;28;20203;-86
2022/12/28 03:51:28;;;;;;;13.97;6.73;;;1.80;99.90;;;;;;5013769;28;20253;-83
2022/12/28 03:53:58;;;;;;;15.40;6.77;;;1.70;99.90;;;;;;5014564;28;20204;-84
2022/12/28 03:56:27;;;;;;;14.13;7.23;;;1.80;99.90;;;;;;4996926;28;20266;-87
2022/12/28 03:58:55;;;;;;;15.90;7.30;;;1.70;99.90;;;;;;4996701;28;20199;-87
2022/12/28 04:01:22;;;;;;;19.00;7.00;;;1.70;99.90;;;;;;4996458;28;20200;-84
2022/12/28 04:03:59;;;;;;;19.40;7.10;;;1.60;99.90;;;;;;4979767;28;20252;-84
2022/12/28 04:06:29;;;;;;;15.40;7.30;;;1.60;99.90;;;;;;5012299;28;20207;-84
2022/12/28 04:09:03;;;;;;;14.27;7.33;;;1.60;99.90;;;;;;5017134;28;20187;-87
2022/12/28 04:11:40;;;;;;;15.77;7.30;;;1.50;99.90;;;;;;4999843;28;20198;-87
2022/12/28 04:14:07;;;;;;;13.67;6.93;;;1.50;99.90;;;;;;5000430;28;20207;-84
2022/12/28 04:16:47;;;;;;;13.60;6.83;;;1.50;99.90;;;;;;5016194;28;20295;-85
2022/12/28 04:19:15;;;;;;;14.67;7.50;;;1.40;99.90;;;;;;4999380;28;20205;-84
2022/12/28 04:21:45;;;;;;;14.77;7.07;;;1.60;99.90;;;;;;5017112;28;20285;-85
2022/12/28 04:24:19;;;;;;;17.20;7.90;;;1.40;99.90;;;;;;4999966;28;20287;-89
2022/12/28 04:26:50;;;;;;;17.97;6.70;;;1.40;99.90;;;;;;4999955;28;20214;-85
2022/12/28 04:29:24;;;;;;;17.47;6.73;;;1.40;99.90;;;;;;5017152;28;20219;-88
2022/12/28 04:31:57;;;;;;;16.50;7.10;;;1.30;99.90;;;;;;5017878;28;20621;-88
2022/12/28 04:34:28;;;;;;;13.70;6.87;;;1.30;99.90;;;;;;5017734;28;20203;-85
2022/12/28 04:37:09;;;;;;;16.13;7.47;;;1.20;99.90;;;;;;5000156;28;20227;-86
2022/12/28 04:39:50;;;;;;;14.80;7.73;;;1.40;99.90;;;;;;5017856;28;20191;-86
2022/12/28 04:42:37;;;;;;;;;;;;;;;;;;;;;
2022/12/28 04:45:08;;;;;;;15.27;7.17;;;1.30;99.90;;;;;;4997173;28;20222;-87
2022/12/28 04:47:40;;;;;;;16.33;7.43;;;1.20;99.90;;;;;;4998302;28;20209;-90
2022/12/28 04:50:08;;;;;;;17.53;7.43;;;1.00;99.90;;;;;;4996351;28;20193;-85
2022/12/28 04:52:36;;;;;;;14.53;7.20;;;1.10;99.90;;;;;;4998013;28;20279;-89
2022/12/28 04:55:07;;;;;;;13.63;7.13;;;1.10;99.90;;;;;;4996724;28;20296;-87
2022/12/28 04:58:03;;;;;;;17.70;7.63;;;1.10;99.90;;;;;;4998092;28;20263;-90
2022/12/28 05:00:34;;;;;;;17.97;7.50;;;1.00;99.90;;;;;;4995686;28;20188;-88
2022/12/28 05:03:01;;;;;;;15.90;8.07;;;1.00;99.90;;;;;;4996925;28;20542;-84
2022/12/28 05:05:34;;;;;;;16.00;7.13;;;1.10;99.90;;;;;;4998039;28;20191;-89
2022/12/28 05:08:05;;;;;;;19.83;7.83;;;1.00;99.90;;;;;;4997108;28;20263;-91
2022/12/28 05:10:35;;;;;;;17.33;7.83;;;0.90;99.90;;;;;;4997118;28;20685;-85
2022/12/28 05:13:05;;;;;;;15.30;7.83;;;1.00;99.90;;;;;;4995946;28;20655;-86
2022/12/28 05:15:35;;;;;;;16.57;7.67;;;0.90;99.90;;;;;;4995847;28;20252;-89
2022/12/28 05:18:12;;;;;;;17.13;8.13;;;0.80;99.90;;;;;;4997446;28;20212;-84
2022/12/28 05:20:43;;;;;;;14.27;7.87;;;0.90;99.90;;;;;;4996431;28;20181;-87
2022/12/28 05:23:10;;;;;;;21.87;8.30;;;0.80;99.90;;;;;;4996141;28;20220;-90
2022/12/28 05:25:41;;;;;;;20.87;8.27;;;0.90;99.90;;;;;;4996298;28;20226;-84
2022/12/28 05:28:17;;;;;;;19.80;8.57;;;0.90;99.90;;;;;;4995602;28;20729;-89
2022/12/28 05:30:45;;;;;;;16.93;8.17;;;0.90;99.90;;;;;;4997696;28;20195;-85
2022/12/28 05:33:24;;;;;;;18.37;8.53;;;0.90;99.90;;;;;;4996865;28;20200;-87
2022/12/28 05:35:55;;;;;;;17.97;8.83;;;0.90;99.90;;;;;;4995705;28;20250;-89
2022/12/28 05:38:24;;;;;;;19.30;7.97;;;0.80;99.90;;;;;;5012007;28;20638;-89
2022/12/28 05:41:10;;;;;;;20.10;8.70;;;0.90;99.90;;;;;;4995961;28;20197;-83
2022/12/28 05:43:38;;;;;;;15.57;8.33;;;0.70;99.90;;;;;;5016332;28;20231;-88
2022/12/28 05:46:13;;;;;;;18.90;8.57;;;0.80;99.90;;;;;;5016582;28;20199;-85
2022/12/28 05:48:45;;;;;;;17.57;9.33;;;0.70;99.90;;;;;;5016889;28;20191;-91
2022/12/28 05:51:28;;;;;;;15.63;8.80;;;0.70;99.90;;;;;;5016595;28;20188;-84
2022/12/28 05:54:03;;;;;;;18.97;9.10;;;0.70;99.90;;;;;;5016336;28;20321;-89
2022/12/28 05:56:34;;;;;;;20.83;9.37;;;0.70;99.90;;;;;;5015799;28;20572;-86
2022/12/28 05:59:06;;;;;;;16.50;9.47;;;0.60;99.90;;;;;;5014953;28;20716;-84
2022/12/28 06:01:37;;;;;;;18.17;9.67;;;0.60;99.90;;;;;;5016973;28;20180;-84
2022/12/28 06:04:14;;;;;;;19.70;9.77;;;0.60;99.90;;;;;;5016029;28;20604;-89
2022/12/28 06:06:46;;;;;;;24.40;9.27;;;0.60;99.90;;;;;;5016345;28;20287;-85
2022/12/28 06:09:14;;;;;;;20.33;9.57;;;0.60;99.90;;;;;;4997685;28;20600;-85
2022/12/28 06:11:45;;;;;;;20.30;9.57;;;0.50;99.90;;;;;;4997695;28;20295;-89
2022/12/28 06:14:15;;;;;;;22.33;9.97;;;0.50;99.90;;;;;;4998035;28;20194;-90
2022/12/28 06:16:46;;;;;;;20.20;10.07;;;0.50;99.90;;;;;;4997468;28;20218;-88
2022/12/28 06:19:14;;;;;;;18.80;10.17;;;0.40;99.90;;;;;;5015163;28;20196;-90
2022/12/28 06:21:53;;;;;;;20.93;10.70;;;0.50;99.90;;;;;;5017072;28;20682;-87
2022/12/28 06:24:22;;;;;;;19.03;9.87;;;0.40;99.90;;;;;;5033280;28;20544;-84
2022/12/28 06:26:52;;;;;;;26.30;10.97;;;0.40;99.90;;;;;;5034701;28;20657;-87
2022/12/28 06:29:20;;;;;;;24.63;11.43;;;0.40;99.90;;;;;;5017816;28;20238;-87
2022/12/28 06:31:53;;;;;;;22.00;10.93;;;0.40;99.90;;;;;;5034675;28;20188;-90
2022/12/28 06:34:28;;;;;;;23.37;10.57;;;0.40;99.90;;;;;;5035918;28;20233;-89
2022/12/28 06:36:58;;;;;;;24.67;10.83;;;0.40;99.90;;;;;;5034992;28;20224;-86
2022/12/28 06:39:27;;;;;;;22.07;10.33;;;0.30;99.90;;;;;;5017616;28;20204;-87
2022/12/28 06:41:55;;;;;;;23.97;10.80;;;0.40;99.90;;;;;;5013445;28;20349;-87
2022/12/28 06:44:22;;;;;;;21.80;11.23;;;0.40;99.90;;;;;;5013978;28;20195;-89
2022/12/28 06:46:52;;;;;;;22.97;11.03;;;0.50;99.90;;;;;;5014491;28;20223;-92
2022/12/28 06:49:26;;;;;;;22.07;10.70;;;0.60;99.90;;;;;;5014465;28;20239;-87
2022/12/28 06:51:58;;;;;;;23.07;10.63;;;0.50;99.90;;;;;;5015232;28;20201;-89
2022/12/28 06:54:26;;;;;;;21.10;11.17;;;0.50;99.90;;;;;;5014248;28;20195;-82
2022/12/28 06:56:53;;;;;;;19.80;11.03;;;0.60;99.90;;;;;;5012886;28;20235;-89
2022/12/28 06:59:20;;;;;;;20.87;10.80;;;0.60;99.90;;;;;;5030727;28;20198;-88
2022/12/28 07:01:48;;;;;;;21.33;10.70;;;0.60;99.90;;;;;;5012733;28;20204;-82
2022/12/28 07:04:16;;;;;;;21.50;10.23;;;0.70;99.90;;;;;;4997329;28;20192;-84
2022/12/28 07:06:58;;;;;;;22.30;10.43;;;0.70;99.90;;;;;;5012781;28;20204;-86
2022/12/28 07:09:28;;;;;;;22.63;11.00;;;0.70;99.90;;;;;;5013224;28;20284;-82
2022/12/28 07:11:56;;;;;;;19.07;10.13;;;0.60;99.90;;;;;;5029355;28;20245;-84
2022/12/28 07:14:23;;;;;;;22.43;10.53;;;0.70;99.90;;;;;;5029648;28;20185;-78
2022/12/28 07:16:50;;;;;;;22.00;10.27;;;0.60;99.90;;;;;;5029326;28;20230;-83
2022/12/28 07:19:18;;;;;;;19.33;10.23;;;0.80;99.90;;;;;;4996558;28;20208;-85
2022/12/28 07:21:48;;;;;;;20.83;10.40;;;0.80;99.90;;;;;;5013179;28;20221;-84
2022/12/28 07:24:16;;;;;;;23.27;10.60;;;0.70;99.90;;;;;;5014442;28;20222;-84
2022/12/28 07:26:44;;;;;;;19.23;10.00;;;0.70;99.90;;;;;;4997437;28;20207;-83
2022/12/28 07:29:11;;;;;;;18.63;10.20;;;0.70;99.90;;;;;;5029955;28;20222;-87
2022/12/28 07:31:39;;;;;;;22.07;10.27;;;0.70;99.90;;;;;;5012943;28;20664;-79
2022/12/28 07:34:17;;;;;;;21.77;9.80;;;0.80;99.90;;;;;;5013459;28;20209;-81
2022/12/28 07:36:51;;;;;;;21.10;9.83;;;0.80;99.90;;;;;;4996778;28;20214;-84
2022/12/28 07:39:18;;;;;;;20.60;10.17;;;0.80;99.90;;;;;;5013536;28;20681;-82
2022/12/28 07:41:45;;;;;;;19.07;9.70;;;1.00;99.90;;;;;;4995672;28;20259;-85
2022/12/28 07:44:12;;;;;;;18.37;9.40;;;0.90;99.90;;;;;;5012032;28;20671;-84
2022/12/28 07:46:39;;;;;;;16.20;8.97;;;0.90;99.90;;;;;;5011941;28;20524;-85
2022/12/28 07:49:10;;;;;;;20.67;9.43;;;0.90;99.90;;;;;;4997000;28;20192;-83
2022/12/28 07:51:38;;;;;;;19.20;9.93;;;1.00;99.90;;;;;;5012865;28;20631;-86
2022/12/28 07:54:08;;;;;;;19.43;10.03;;;1.10;99.90;;;;;;5013781;28;20196;-85
2022/12/28 07:56:38;;;;;;;18.70;9.50;;;1.10;99.90;;;;;;5013323;28;20291;-86
2022/12/28 07:59:05;;;;;;;19.03;9.60;;;1.10;99.90;;;;;;5008662;28;20188;-83
2022/12/28 08:01:34;;;;;;;16.00;9.50;;;1.30;99.90;;;;;;4992244;28;20289;-85
2022/12/28 08:04:06;;;;;;;19.30;9.30;;;1.40;99.90;;;;;;4992610;28;20212;-86
2022/12/28 08:06:36;;;;;;;20.70;10.00;;;1.50;99.90;;;;;;4992353;28;20574;-84
2022/12/28 08:09:05;;;;;;;16.53;9.33;;;1.60;99.90;;;;;;4992495;28;20524;-81
2022/12/28 08:11:35;;;;;;;15.63;8.73;;;1.70;99.90;;;;;;4992496;28;20194;-83
2022/12/28 08:14:02;;;;;;;16.70;9.20;;;1.60;99.90;;;;;;4992294;28;20255;-83
2022/12/28 08:16:33;;;;;;;19.37;9.13;;;1.60;99.90;;;;;;4992045;28;20672;-85
2022/12/28 08:19:00;;;;;;;16.37;9.27;;;1.70;99.90;;;;;;4992315;28;20678;-80
2022/12/28 08:21:33;;;;;;;18.40;9.00;;;1.70;99.90;;;;;;4992597;28;20218;-81
2022/12/28 08:24:01;;;;;;;20.30;9.10;;;1.60;99.90;;;;;;4992435;28;20206;-82
2022/12/28 08:26:33;;;;;;;22.42;11.73;;;1.60;99.90;;;;;;4991912;28;20469;-85
2022/12/28 08:29:03;;;;;;;18.70;10.30;;;1.70;99.90;;;;;;4992511;28;20228;-83
2022/12/28 08:31:39;;;;;;;17.47;9.30;;;1.70;99.90;;;;;;4992645;28;20214;-79
2022/12/28 08:34:13;;;;;;;17.70;9.33;;;1.80;99.90;;;;;;4991997;28;20201;-79
2022/12/28 08:36:43;;;;;;;16.33;8.70;;;1.80;99.90;;;;;;4992037;28;20676;-80
2022/12/28 08:39:10;;;;;;;18.70;8.60;;;1.90;99.90;;;;;;4975887;28;20373;-81
2022/12/28 08:41:37;;;;;;;18.00;10.50;;;2.00;99.90;;;;;;5013814;28;20557;-81
2022/12/28 08:44:05;;;;;;;17.10;9.48;;;1.90;99.90;;;;;;5031682;28;20446;-80
2022/12/28 08:46:34;;;;;;;19.20;8.97;;;2.00;99.90;;;;;;5014835;28;20227;-80
2022/12/28 08:49:02;;;;;;;16.13;8.80;;;2.00;99.90;;;;;;5014813;28;20312;-79
2022/12/28 08:51:35;;;;;;;14.87;8.70;;;2.10;99.90;;;;;;5014784;28;20605;-80
2022/12/28 08:54:05;;;;;;;15.97;8.57;;;2.20;99.90;;;;;;5015542;28;20206;-81
2022/12/28 08:56:36;;;;;;;19.43;8.83;;;2.20;99.90;;;;;;5018712;28;20238;-88
2022/12/28 08:59:06;;;;;;;15.47;8.10;;;2.40;99.90;;;;;;5019390;28;20562;-87
2022/12/28 09:01:36;;;;;;;14.87;7.80;;;2.40;99.90;;;;;;5019350;28;20200;-86
2022/12/28 09:04:18;;;;;;;15.00;8.40;;;2.50;99.90;;;;;;5019282;28;20310;-84
2022/12/28 09:06:45;;;;;;;17.33;8.30;;;2.60;99.90;;;;;;5035058;28;20195;-85
2022/12/28 09:09:15;;;;;;;16.13;8.03;;;2.60;99.90;;;;;;5024469;28;20253;-82
2022/12/28 09:11:43;;;;;;;15.63;8.17;;;2.70;99.90;;;;;;5007925;28;20363;-79
2022/12/28 09:14:12;;;;;;;18.80;8.27;;;2.80;99.90;;;;;;5009143;28;20211;-81
2022/12/28 09:16:48;;;;;;;17.03;7.97;;;2.80;99.90;;;;;;5008577;28;20248;-82
2022/12/28 09:19:18;;;;;;;16.70;7.43;;;3.00;99.90;;;;;;5014235;28;20261;-83
2022/12/28 09:21:47;;;;;;;15.13;7.17;;;3.00;99.90;;;;;;5018452;28;20291;-79
2022/12/28 09:24:15;;;;;;;15.33;7.67;;;3.10;99.90;;;;;;5017823;28;20583;-83
2022/12/28 09:26:45;;;;;;;13.40;7.80;;;3.20;99.90;;;;;;5007462;28;20195;-78
2022/12/28 09:29:13;;;;;;;16.20;7.90;;;3.40;99.90;;;;;;5032135;28;20262;-78
2022/12/28 09:31:42;;;;;;;14.93;7.27;;;3.40;99.90;;;;;;5014826;28;20221;-79
2022/12/28 09:34:12;;;;;;;15.70;7.50;;;3.50;99.90;;;;;;5012264;28;20205;-80
2022/12/28 09:36:59;;;;;;;14.77;6.93;;;3.60;99.90;;;;;;5032152;28;20245;-79
2022/12/28 09:39:28;;;;;;;12.70;6.63;;;3.60;99.90;;;;;;5029211;28;20238;-87
2022/12/28 09:42:01;;;;;;;12.80;7.17;;;3.70;99.90;;;;;;5021443;28;20239;-80
2022/12/28 09:44:31;;;;;;;14.93;7.60;;;3.80;99.90;;;;;;5021346;28;20210;-79
2022/12/28 09:47:26;;;;;;;13.67;6.20;;;3.80;99.90;;;;;;5037630;28;20210;-75
2022/12/28 09:50:37;;;;;;;11.83;6.80;;;3.80;99.90;;;;;;4997053;28;20591;-80
2022/12/28 09:53:10;;;;;;;13.63;6.67;;;3.90;99.90;;;;;;5011830;28;20216;-79
2022/12/28 09:55:40;;;;;;;11.17;5.93;;;4.00;99.90;;;;;;4999039;28;20249;-82
2022/12/28 09:58:15;;;;;;;12.80;6.00;;;4.00;99.90;;;;;;5016438;28;20258;-81
2022/12/28 10:00:52;;;;;;;13.43;5.87;;;4.10;99.90;;;;;;4997727;28;20616;-79
2022/12/28 10:03:42;;;;;;;9.50;5.40;;;4.10;99.90;;;;;;5010646;28;20291;-78
2022/12/28 10:06:45;;;;;;;13.57;5.73;;;4.20;99.90;;;;;;5007999;28;20250;-77
2022/12/28 10:09:25;;;;;;;11.13;5.90;;;4.30;99.90;;;;;;5006067;28;20677;-75
2022/12/28 10:12:27;;;;;;;10.67;5.67;;;4.30;99.90;;;;;;5020493;28;20194;-76
2022/12/28 10:14:58;;;;;;;10.17;5.37;;;4.30;99.90;;;;;;5024636;28;20636;-77
2022/12/28 10:17:37;;;;;;;12.83;5.20;;;4.40;99.90;;;;;;5011950;28;20274;-77
2022/12/28 10:20:15;;;;;;;11.20;5.57;;;4.40;99.90;;;;;;5024579;28;20191;-76
2022/12/28 10:23:05;;;;;;;12.33;5.90;;;4.40;99.90;;;;;;5004882;28;20287;-78
2022/12/28 10:25:55;;;;;;;10.67;5.30;;;4.50;99.90;;;;;;4995925;28;20202;-82
2022/12/28 10:28:43;;;;;;;11.00;5.53;;;4.60;99.90;;;;;;5006154;28;20220;-81
2022/12/28 10:31:35;;;;;;;12.03;4.97;;;4.60;99.90;;;;;;5021586;28;20223;-76
2022/12/28 10:34:14;;;;;;;13.53;5.23;;;4.50;99.90;;;;;;5007738;28;20207;-76
2022/12/28 10:36:43;;;;;;;12.30;5.83;;;4.80;99.90;;;;;;4993824;28;20282;-77
2022/12/28 10:39:35;;;;;;;9.93;5.27;;;4.90;99.90;;;;;;5004342;28;20212;-76
2022/12/28 10:42:03;;;;;;;13.33;5.73;;;4.90;99.90;;;;;;5022004;28;20227;-76
2022/12/28 10:44:37;;;;;;;10.03;5.53;;;4.80;99.90;;;;;;5007030;28;20197;-77
2022/12/28 10:47:24;;;;;;;12.80;5.63;;;4.90;99.90;;;;;;4996690;28;20623;-77
2022/12/28 10:49:51;;;;;;;11.13;5.33;;;4.80;99.90;;;;;;5011439;28;20192;-75
2022/12/28 10:52:38;;;;;;;9.83;5.30;;;4.90;99.90;;;;;;5012636;28;20193;-77
2022/12/28 10:56:10;;;;;;;14.82;6.68;;;4.90;99.90;;;;;;5022016;28;20424;-76
2022/12/28 10:59:45;;;;;;;11.87;5.73;;;4.90;99.90;;;;;;4925769;29;20215;-80
2022/12/28 11:02:35;;;;;;;11.43;5.30;;;4.80;99.90;;;;;;4934672;28;20686;-75
2022/12/28 11:05:26;;;;;;;12.90;6.27;;;4.70;99.90;;;;;;4935625;29;20289;-77
2022/12/28 11:08:10;;;;;;;13.83;6.50;;;4.80;99.90;;;;;;4951323;28;20624;-79
2022/12/28 11:11:10;;;;;;;12.83;6.00;;;4.60;99.90;;;;;;4949222;29;20208;-79
2022/12/28 11:14:25;;;;;;;13.17;6.03;;;4.60;99.90;;;;;;4936426;29;20224;-80
2022/12/28 11:17:18;;;;;;;15.97;6.47;;;4.50;99.90;;;;;;4928371;29;20234;-76
2022/12/28 11:19:52;;;;;;;13.77;6.67;;;4.50;99.90;;;;;;4946359;29;20193;-78
2022/12/28 11:22:24;;;;;;;14.00;7.17;;;4.50;99.90;;;;;;4933323;29;20194;-75
2022/12/28 11:24:55;;;;;;;16.00;7.37;;;4.30;99.90;;;;;;4934061;29;20193;-77
2022/12/28 11:27:23;;;;;;;15.80;6.73;;;4.40;99.90;;;;;;4917009;28;20574;-76
2022/12/28 11:29:53;;;;;;;16.50;7.50;;;4.50;99.90;;;;;;4930724;29;20234;-76
2022/12/28 11:32:29;;;;;;;15.77;7.37;;;4.50;99.90;;;;;;4932431;29;20300;-76
2022/12/28 11:35:00;;;;;;;15.10;7.03;;;4.40;99.90;;;;;;4970019;28;20281;-76
2022/12/28 11:37:27;;;;;;;14.63;7.50;;;4.60;99.90;;;;;;4984927;28;20221;-77
2022/12/28 11:39:55;;;;;;;15.80;7.27;;;4.50;99.90;;;;;;4971290;28;20204;-79
2022/12/28 11:42:31;;;;;;;17.23;7.50;;;4.50;99.90;;;;;;4973123;28;20717;-77
2022/12/28 11:45:15;;;;;;;16.57;7.20;;;4.50;99.90;;;;;;4955455;28;20717;-77
2022/12/28 11:47:48;;;;;;;16.97;7.20;;;4.60;99.90;;;;;;4972343;28;20296;-75
2022/12/28 11:50:35;;;;;;;14.10;6.80;;;4.40;99.90;;;;;;4968044;28;20253;-81
2022/12/28 11:53:32;;;;;;;14.13;6.93;;;4.50;99.90;;;;;;4979061;28;20209;-76
2022/12/28 11:56:08;;;;;;;14.87;6.70;;;4.50;99.90;;;;;;4981512;28;20190;-80
2022/12/28 11:58:41;;;;;;;17.93;7.17;;;4.50;99.90;;;;;;4981676;28;20661;-76
2022/12/28 12:01:27;;;;;;;12.63;6.47;;;4.60;99.90;;;;;;4982306;28;20714;-78
2022/12/28 12:04:17;;;;;;;11.57;5.87;;;4.70;99.90;;;;;;4973740;28;20535;-78
2022/12/28 12:07:00;;;;;;;11.20;5.83;;;4.60;99.90;;;;;;4976787;28;20651;-74
2022/12/28 12:09:31;;;;;;;15.67;6.50;;;4.50;99.90;;;;;;4976631;28;20205;-76
2022/12/28 12:12:18;;;;;;;15.03;6.43;;;4.60;99.90;;;;;;4972821;28;20301;-75
2022/12/28 12:14:56;;;;;;;13.83;6.20;;;4.60;99.90;;;;;;4958834;28;20320;-75
2022/12/28 12:17:40;;;;;;;12.43;5.90;;;4.60;99.90;;;;;;4973135;28;20319;-76
2022/12/28 12:20:41;;;;;;;14.47;6.30;;;4.60;99.90;;;;;;4978463;28;20290;-75
2022/12/28 12:23:39;;;;;;;13.53;6.03;;;4.80;99.90;;;;;;4983152;28;20213;-75
2022/12/28 12:26:19;;;;;;;13.23;5.90;;;4.70;99.90;;;;;;4981531;28;20197;-76
2022/12/28 12:29:31;;;;;;;12.33;6.13;;;4.60;99.90;;;;;;4959547;28;20228;-74
2022/12/28 12:33:24;;;;;;;;;;;;;;;;;;;;;
2022/12/28 12:36:58;;;;;;;15.33;6.13;;;4.50;99.90;;;;;;4984109;28;20193;-74
2022/12/28 12:44:19;;;;;;;11.83;5.77;;;4.60;99.90;;;;;;4993796;28;20250;-79
2022/12/28 12:47:13;;;;;;;14.83;6.00;;;4.60;99.90;;;;;;4991508;28;20709;-78
2022/12/28 12:49:55;;;;;;;13.47;5.80;;;4.50;99.90;;;;;;4972191;28;20197;-75
2022/12/28 12:52:55;;;;;;;13.23;6.37;;;4.60;99.90;;;;;;4985462;28;20197;-80
2022/12/28 12:56:10;;;;;;;17.03;6.80;;;4.50;99.90;;;;;;4987683;28;20564;-78
2022/12/28 13:00:12;;;;;;;13.17;6.40;;;4.50;99.90;;;;;;4963928;28;20229;-77
2022/12/28 13:03:34;;;;;;;12.47;6.23;;;4.40;99.90;;;;;;4977199;28;20205;-79
2022/12/28 13:06:17;;;;;;;15.53;6.63;;;4.50;99.90;;;;;;4994409;28;20193;-76
2022/12/28 13:08:52;;;;;;;14.80;6.10;;;4.60;99.90;;;;;;5001150;28;20197;-76
2022/12/28 13:11:22;;;;;;;11.13;5.90;;;4.60;99.90;;;;;;4997836;28;20227;-76
2022/12/28 13:13:53;;;;;;;12.60;6.50;;;4.50;99.90;;;;;;4982259;28;20228;-78
2022/12/28 13:16:29;;;;;;;13.67;5.57;;;4.60;99.90;;;;;;4989593;28;20653;-80
2022/12/28 13:19:06;;;;;;;12.33;5.63;;;4.50;99.90;;;;;;5003100;28;20220;-78
2022/12/28 13:21:49;;;;;;;11.93;6.00;;;4.50;99.90;;;;;;4986459;28;20197;-76
2022/12/28 13:28:18;;;;;;;15.30;7.03;;;4.60;99.90;;;;;;4937545;28;20198;-79
2022/12/28 13:31:17;;;;;;;13.07;5.70;;;4.60;99.90;;;;;;4938344;29;20294;-76
2022/12/28 13:34:26;;;;;;;13.47;5.93;;;4.60;99.90;;;;;;4918020;29;20214;-74
2022/12/28 13:37:17;;;;;;;13.60;6.30;;;4.60;99.90;;;;;;4928084;29;20274;-81
2022/12/28 13:40:35;;;;;;;13.40;5.90;;;4.70;99.90;;;;;;4929601;28;20681;-77
2022/12/28 13:48:00;;;;;;;10.73;5.17;;;4.60;99.90;;;;;;4914765;29;20208;-76
2022/12/28 13:50:45;;;;;;;17.43;5.20;;;4.60;99.90;;;;;;4896128;29;20663;-76
2022/12/28 13:54:07;;;;;;;11.23;5.43;;;4.60;99.90;;;;;;4911014;29;20300;-77
2022/12/28 13:56:40;;;;;;;13.40;5.03;;;4.60;99.90;;;;;;4891090;29;20235;-75
2022/12/28 13:59:24;;;;;;;11.40;5.07;;;4.50;99.90;;;;;;4902120;29;20742;-79
2022/12/28 14:02:06;;;;;;;10.87;5.30;;;4.60;99.90;;;;;;4909789;29;20231;-79
2022/12/28 14:04:34;;;;;;;10.87;5.30;;;4.60;99.90;;;;;;4935365;29;20249;-77
2022/12/28 14:07:28;;;;;;;11.37;4.73;;;4.60;99.90;;;;;;4936001;29;20208;-78
2022/12/28 14:09:59;;;;;;;13.70;5.00;;;4.60;99.90;;;;;;4916517;29;20204;-80
2022/12/28 14:12:38;;;;;;;11.07;4.67;;;4.60;99.90;;;;;;4910259;29;20593;-75
2022/12/28 14:15:27;;;;;;;9.30;4.63;;;4.50;99.90;;;;;;4934588;29;20200;-76
2022/12/28 14:17:58;;;;;;;9.43;4.70;;;4.60;99.90;;;;;;4951063;28;20717;-76
2022/12/28 14:21:13;;;;;;;;;;;;;;;;;;;;;